Osg Courageous — WDF7122 — position and weather

sailwx.info

Track history (hours):
 
Tides and Currents Weather Stations Pressure Air Temp Water Temp Dewpoint Dewpoint Depression Visibility Wind Speed Wind Dir Waves Ship Positions

Osg Courageous

Owner: OSG Ship Management, Inc, Tampa, FL. More information available from US FCC via Universal Licensing System and Coast Guard Vessel Documentation Center.

Last reported at 2018-Apr-24 09:02 UTC. Time now 2018-Apr-24 22:44 UTC.
Position N 29°38' W 093°19'.

Length 187 m; draft 11 m.

Type: Tanker. MMSI: 367481310.

Date/timePositionNaut miles runAvg speedWind from/ knotsBaromVisibWave heightAir tempDewpointWater temp
2018-Apr-24 09:02N 29°38' W 093°19'0 8.2
2018-Apr-24 08:59N 29°39' W 093°19'4 8.0
2018-Apr-24 08:30N 29°43' W 093°20'5 9.4
2018-Apr-24 08:00N 29°47' W 093°21'5 9.5
2018-Apr-24 07:30N 29°52' W 093°21'4 7.7
2018-Apr-24 07:00N 29°56' W 093°20'4 7.4
2018-Apr-24 06:30N 29°59' W 093°20'3 6.6
2018-Apr-24 06:00N 30°03' W 093°20'3 6.2
2018-Apr-24 05:30N 30°06' W 093°20'3 6.6
2018-Apr-24 05:00N 30°09' W 093°20'2 3.5
2018-Apr-24 04:30N 30°11' W 093°19'0 0.0
2018-Apr-24 04:00N 30°11' W 093°19'0 0.0
2018-Apr-24 03:30N 30°11' W 093°19'0 0.0
2018-Apr-24 03:00N 30°11' W 093°19'0 0.0
2018-Apr-24 02:30N 30°11' W 093°19'0 0.0
2018-Apr-24 02:00N 30°11' W 093°19'0 0.0
2018-Apr-24 01:30N 30°11' W 093°19'0 0.0
2018-Apr-24 01:00N 30°11' W 093°19'0 0.0
2018-Apr-24 00:30N 30°11' W 093°19'0 0.0
2018-Apr-24 00:00N 30°11' W 093°19'0 0.0
2018-Apr-23 23:30N 30°11' W 093°19'0 0.0
2018-Apr-23 23:00N 30°11' W 093°19'0 0.0
2018-Apr-23 22:30N 30°11' W 093°19'0 0.0
2018-Apr-23 22:00N 30°11' W 093°19'0 0.0
2018-Apr-23 21:30N 30°11' W 093°19'0 0.0
2018-Apr-23 21:00N 30°11' W 093°19'0 0.0
2018-Apr-23 20:30N 30°11' W 093°19'0 0.0
2018-Apr-23 20:00N 30°11' W 093°19'0 0.0
2018-Apr-23 19:30N 30°11' W 093°19'0 0.0
2018-Apr-23 19:00N 30°11' W 093°19'0 0.0
2018-Apr-23 18:30N 30°11' W 093°19'0 0.0
2018-Apr-23 18:00N 30°11' W 093°19'0 0.0
2018-Apr-23 17:30N 30°11' W 093°19'0 0.0
2018-Apr-23 17:00N 30°11' W 093°19'0 0.0
2018-Apr-23 16:30N 30°11' W 093°19'0 0.0
2018-Apr-23 16:00N 30°11' W 093°19'0 0.0
2018-Apr-23 15:27N 30°11' W 093°19'0 0.0
2018-Apr-23 15:00N 30°11' W 093°19'0 0.0
2018-Apr-23 14:30N 30°11' W 093°19'0 0.0
2018-Apr-23 14:00N 30°11' W 093°19'0 0.0
2018-Apr-23 13:30N 30°11' W 093°19'0 0.0
2018-Apr-23 13:00N 30°11' W 093°19'0 0.0
2018-Apr-23 12:30N 30°11' W 093°19'0 0.0
2018-Apr-23 12:00N 30°11' W 093°19'0 0.0
2018-Apr-23 11:30N 30°11' W 093°19'0 0.0
2018-Apr-23 11:00N 30°11' W 093°19'0 0.0
2018-Apr-23 10:30N 30°11' W 093°19'0 0.0
2018-Apr-23 10:00N 30°11' W 093°19'0 0.0
2018-Apr-23 09:30N 30°11' W 093°19'0 0.0
2018-Apr-23 09:00N 30°11' W 093°19'0 0.0
2018-Apr-23 08:30N 30°11' W 093°19'0 0.0
2018-Apr-23 08:00N 30°11' W 093°19'0 0.0
2018-Apr-23 07:30N 30°11' W 093°19'0 0.0
2018-Apr-23 07:00N 30°11' W 093°19'0 0.0
2018-Apr-23 06:30N 30°11' W 093°19'0 0.0
2018-Apr-23 06:00N 30°11' W 093°19'0 0.0
2018-Apr-23 05:27N 30°11' W 093°19'0 0.0
2018-Apr-23 05:00N 30°11' W 093°19'0 0.0
2018-Apr-23 04:30N 30°11' W 093°19'0 0.0
2018-Apr-23 03:57N 30°11' W 093°19'0 0.0
2018-Apr-23 03:30N 30°11' W 093°19'0 0.0
2018-Apr-23 03:00N 30°11' W 093°19'0 0.0
2018-Apr-23 02:30N 30°11' W 093°19'0 0.0
2018-Apr-23 02:00N 30°11' W 093°19'0 0.0
2018-Apr-23 01:30N 30°11' W 093°19'0 0.0
2018-Apr-23 01:00N 30°11' W 093°19'0 0.0
2018-Apr-23 00:30N 30°11' W 093°19'0 0.0
2018-Apr-23 00:00N 30°11' W 093°19'0 0.0
2018-Apr-22 23:30N 30°11' W 093°19'0 0.0
2018-Apr-22 23:00N 30°11' W 093°19'0 0.0
2018-Apr-22 22:30N 30°11' W 093°19'0 0.0
2018-Apr-22 22:00N 30°11' W 093°19'0 0.0
2018-Apr-22 21:30N 30°11' W 093°19'0 0.0
2018-Apr-22 21:00N 30°11' W 093°19'0 0.0
2018-Apr-22 20:30N 30°11' W 093°19'0 0.0
2018-Apr-22 20:00N 30°11' W 093°19'0 0.0
2018-Apr-22 19:30N 30°11' W 093°19'0 0.0
2018-Apr-22 19:00N 30°11' W 093°19'0 0.0
2018-Apr-22 18:30N 30°11' W 093°19'0 0.0
2018-Apr-22 17:57N 30°11' W 093°19'0 0.0
2018-Apr-22 17:30N 30°11' W 093°19'0 0.0
2018-Apr-22 17:00N 30°11' W 093°19'0 0.0
2018-Apr-22 16:30N 30°11' W 093°19'0 0.0
2018-Apr-22 16:00N 30°11' W 093°19'0 0.0
2018-Apr-22 15:30N 30°11' W 093°19'0 0.0
2018-Apr-22 15:01N 30°11' W 093°19'0 0.3
2018-Apr-22 14:31N 30°11' W 093°19'1 1.3
2018-Apr-22 14:01N 30°10' W 093°19'3 5.6
2018-Apr-22 13:31N 30°07' W 093°20'4 7.4
2018-Apr-22 13:01N 30°04' W 093°20'3 5.7
2018-Apr-22 12:31N 30°01' W 093°20'3 5.3
2018-Apr-22 12:00N 29°58' W 093°20'4 8.1
2018-Apr-22 11:31N 29°54' W 093°21'4 8.6
2018-Apr-22 11:00N 29°50' W 093°21'13 1.9
2018-Apr-22 04:05N 29°37' W 093°21'7 8.4
2018-Apr-22 03:14N 29°35' W 093°28'2 8.7
2018-Apr-22 02:59N 29°34' W 093°31'4 8.7
2018-Apr-22 02:30N 29°33' W 093°35'4 8.8
2018-Apr-22 02:01N 29°32' W 093°40'4 8.7
2018-Apr-22 01:31N 29°31' W 093°45'4 8.6
2018-Apr-22 01:01N 29°30' W 093°50'4 8.7
2018-Apr-22 00:31N 29°29' W 093°55'4 8.4
2018-Apr-22 00:00N 29°27' W 093°59'4 8.7
2018-Apr-21 23:30N 29°24' W 094°03'4 8.9
2018-Apr-21 23:00N 29°21' W 094°07'4 8.8
2018-Apr-21 22:30N 29°18' W 094°10'23 0.8
2018-Apr-20 17:54N 29°20' W 094°36'0 0.1
2018-Apr-20 17:28N 29°20' W 094°36'0 0.0
2018-Apr-20 04:49N 29°20' W 094°36'0 0.0
2018-Apr-19 04:07N 29°20' W 094°36'0 0.1
2018-Apr-19 03:58N 29°20' W 094°36'16 1.4
2018-Apr-18 16:10N 29°09' W 094°22'3 8.5
2018-Apr-18 15:51N 29°08' W 094°19'3 8.4
2018-Apr-18 15:27N 29°06' W 094°16'5 8.5
2018-Apr-18 14:52N 29°03' W 094°12'5 8.1
2018-Apr-18 14:18N 29°00' W 094°07'3 8.0
2018-Apr-18 13:56N 28°59' W 094°05'6 8.2
2018-Apr-18 13:12N 28°55' W 093°59'2 8.7
2018-Apr-18 12:59N 28°54' W 093°57'4 8.5
2018-Apr-18 12:30N 28°52' W 093°53'4 8.4
2018-Apr-18 12:00N 28°49' W 093°49'4 8.5
2018-Apr-18 11:30N 28°47' W 093°45'4 8.6
2018-Apr-18 11:00N 28°44' W 093°42'4 8.5
2018-Apr-18 10:30N 28°42' W 093°37'4 8.7
2018-Apr-18 10:00N 28°39' W 093°34'5 8.7
2018-Apr-18 09:29N 28°37' W 093°29'4 8.8
2018-Apr-18 09:00N 28°34' W 093°25'4 8.9
2018-Apr-18 08:30N 28°32' W 093°21'5 9.0
2018-Apr-18 07:57N 28°29' W 093°17'4 9.0
2018-Apr-18 07:30N 28°26' W 093°13'4 9.0
2018-Apr-18 07:00N 28°24' W 093°09'  
2018-Apr-15 11:31N 27°43' W 082°33'210.5
2018-Apr-15 11:21N 27°44' W 082°32'3 9.4
2018-Apr-15 10:59N 27°47' W 082°31'4 9.1
2018-Apr-15 10:30N 27°50' W 082°27'5 9.1
2018-Apr-15 10:00N 27°54' W 082°26'0 0.7
2018-Apr-15 09:30N 27°54' W 082°26'2 4.2
2018-Apr-15 09:01N 27°57' W 082°27'1 1.3
2018-Apr-15 08:30N 27°57' W 082°27'0 0.0
2018-Apr-15 08:00N 27°57' W 082°27'0 0.0
2018-Apr-15 07:29N 27°57' W 082°27'0 0.0
2018-Apr-15 06:59N 27°57' W 082°27'0 0.0
2018-Apr-15 06:29N 27°57' W 082°27'0 0.0
2018-Apr-15 05:59N 27°57' W 082°27'0 0.0
2018-Apr-15 05:29N 27°57' W 082°27'0 0.0
2018-Apr-15 04:59N 27°57' W 082°27'0 0.0
2018-Apr-15 04:29N 27°57' W 082°27'0 0.0
2018-Apr-15 03:56N 27°57' W 082°27'0 0.0
2018-Apr-15 03:26N 27°57' W 082°27'0 0.0
2018-Apr-15 02:59N 27°57' W 082°27'0 0.0
2018-Apr-15 02:26N 27°57' W 082°27'0 0.0
2018-Apr-15 01:59N 27°57' W 082°27'0 0.0
2018-Apr-15 01:29N 27°57' W 082°27'0 0.0
2018-Apr-15 00:59N 27°57' W 082°27'0 0.0
2018-Apr-15 00:29N 27°57' W 082°27'0 0.0
2018-Apr-14 23:59N 27°57' W 082°27'0 0.0
2018-Apr-14 23:29N 27°57' W 082°27'0 0.0
2018-Apr-14 22:59N 27°57' W 082°27'0 0.1
2018-Apr-14 22:29N 27°57' W 082°27'0 0.0
2018-Apr-14 21:59N 27°57' W 082°27'0 0.0
2018-Apr-14 21:29N 27°57' W 082°27'0 0.0
2018-Apr-14 20:59N 27°57' W 082°27'0 0.0
2018-Apr-14 20:29N 27°57' W 082°27'0 0.0
2018-Apr-14 19:59N 27°57' W 082°27'0 0.0
2018-Apr-14 19:29N 27°57' W 082°27'0 0.0
2018-Apr-14 18:59N 27°57' W 082°27'0 0.0
2018-Apr-14 18:29N 27°57' W 082°27'0 0.0
2018-Apr-14 17:59N 27°57' W 082°27'0 0.0
2018-Apr-14 17:29N 27°57' W 082°27'0 0.0
2018-Apr-14 16:59N 27°57' W 082°27'0 0.0
2018-Apr-14 16:29N 27°57' W 082°27'0 0.0
2018-Apr-14 15:59N 27°57' W 082°27'0 0.0
2018-Apr-14 15:29N 27°57' W 082°27'0 0.0
2018-Apr-14 14:59N 27°57' W 082°27'0 0.0
2018-Apr-14 14:29N 27°57' W 082°27'0 0.0
2018-Apr-14 13:59N 27°57' W 082°27'0 0.0
2018-Apr-14 13:29N 27°57' W 082°27'0 0.0
2018-Apr-14 12:59N 27°57' W 082°27'0 0.0
2018-Apr-14 12:29N 27°57' W 082°27'0 0.0
2018-Apr-14 11:59N 27°57' W 082°27'0 0.0
2018-Apr-14 11:26N 27°57' W 082°27'0 0.0
2018-Apr-14 10:59N 27°57' W 082°27'0 0.0
2018-Apr-14 10:29N 27°57' W 082°27'0 0.0
2018-Apr-14 09:59N 27°57' W 082°27'0 0.0
2018-Apr-14 09:29N 27°57' W 082°27'  
Track history (hours):
 
Tides and Currents Weather Stations Pressure Air Temp Water Temp Dewpoint Dewpoint Depression Visibility Wind Speed Wind Dir Waves Ship Positions

Osg Courageous

Owner: OSG Ship Management, Inc, Tampa, FL. More information available from US FCC via Universal Licensing System and Coast Guard Vessel Documentation Center.

Last reported at 2018-Apr-24 09:02 UTC. Time now 2018-Apr-24 22:44 UTC.
Position N 29°38' W 093°19'.

Length 187 m; draft 11 m.

Type: Tanker. MMSI: 367481310.

Date/timePositionNaut miles runAvg speedWind from/ knotsBaromVisibWave heightAir tempDewpointWater temp
2018-Apr-24 09:02N 29°38' W 093°19'0 8.2
2018-Apr-24 08:59N 29°39' W 093°19'4 8.0
2018-Apr-24 08:30N 29°43' W 093°20'5 9.4
2018-Apr-24 08:00N 29°47' W 093°21'5 9.5
2018-Apr-24 07:30N 29°52' W 093°21'4 7.7
2018-Apr-24 07:00N 29°56' W 093°20'4 7.4
2018-Apr-24 06:30N 29°59' W 093°20'3 6.6
2018-Apr-24 06:00N 30°03' W 093°20'3 6.2
2018-Apr-24 05:30N 30°06' W 093°20'3 6.6
2018-Apr-24 05:00N 30°09' W 093°20'2 3.5
2018-Apr-24 04:30N 30°11' W 093°19'0 0.0
2018-Apr-24 04:00N 30°11' W 093°19'0 0.0
2018-Apr-24 03:30N 30°11' W 093°19'0 0.0
2018-Apr-24 03:00N 30°11' W 093°19'0 0.0
2018-Apr-24 02:30N 30°11' W 093°19'0 0.0
2018-Apr-24 02:00N 30°11' W 093°19'0 0.0
2018-Apr-24 01:30N 30°11' W 093°19'0 0.0
2018-Apr-24 01:00N 30°11' W 093°19'0 0.0
2018-Apr-24 00:30N 30°11' W 093°19'0 0.0
2018-Apr-24 00:00N 30°11' W 093°19'0 0.0
2018-Apr-23 23:30N 30°11' W 093°19'0 0.0
2018-Apr-23 23:00N 30°11' W 093°19'0 0.0
2018-Apr-23 22:30N 30°11' W 093°19'0 0.0
2018-Apr-23 22:00N 30°11' W 093°19'0 0.0
2018-Apr-23 21:30N 30°11' W 093°19'0 0.0
2018-Apr-23 21:00N 30°11' W 093°19'0 0.0
2018-Apr-23 20:30N 30°11' W 093°19'0 0.0
2018-Apr-23 20:00N 30°11' W 093°19'0 0.0
2018-Apr-23 19:30N 30°11' W 093°19'0 0.0
2018-Apr-23 19:00N 30°11' W 093°19'0 0.0
2018-Apr-23 18:30N 30°11' W 093°19'0 0.0
2018-Apr-23 18:00N 30°11' W 093°19'0 0.0
2018-Apr-23 17:30N 30°11' W 093°19'0 0.0
2018-Apr-23 17:00N 30°11' W 093°19'0 0.0
2018-Apr-23 16:30N 30°11' W 093°19'0 0.0
2018-Apr-23 16:00N 30°11' W 093°19'0 0.0
2018-Apr-23 15:27N 30°11' W 093°19'0 0.0
2018-Apr-23 15:00N 30°11' W 093°19'0 0.0
2018-Apr-23 14:30N 30°11' W 093°19'0 0.0
2018-Apr-23 14:00N 30°11' W 093°19'0 0.0
2018-Apr-23 13:30N 30°11' W 093°19'0 0.0
2018-Apr-23 13:00N 30°11' W 093°19'0 0.0
2018-Apr-23 12:30N 30°11' W 093°19'0 0.0
2018-Apr-23 12:00N 30°11' W 093°19'0 0.0
2018-Apr-23 11:30N 30°11' W 093°19'0 0.0
2018-Apr-23 11:00N 30°11' W 093°19'0 0.0
2018-Apr-23 10:30N 30°11' W 093°19'0 0.0
2018-Apr-23 10:00N 30°11' W 093°19'0 0.0
2018-Apr-23 09:30N 30°11' W 093°19'0 0.0
2018-Apr-23 09:00N 30°11' W 093°19'0 0.0
2018-Apr-23 08:30N 30°11' W 093°19'0 0.0
2018-Apr-23 08:00N 30°11' W 093°19'0 0.0
2018-Apr-23 07:30N 30°11' W 093°19'0 0.0
2018-Apr-23 07:00N 30°11' W 093°19'0 0.0
2018-Apr-23 06:30N 30°11' W 093°19'0 0.0
2018-Apr-23 06:00N 30°11' W 093°19'0 0.0
2018-Apr-23 05:27N 30°11' W 093°19'0 0.0
2018-Apr-23 05:00N 30°11' W 093°19'0 0.0
2018-Apr-23 04:30N 30°11' W 093°19'0 0.0
2018-Apr-23 03:57N 30°11' W 093°19'0 0.0
2018-Apr-23 03:30N 30°11' W 093°19'0 0.0
2018-Apr-23 03:00N 30°11' W 093°19'0 0.0
2018-Apr-23 02:30N 30°11' W 093°19'0 0.0
2018-Apr-23 02:00N 30°11' W 093°19'0 0.0
2018-Apr-23 01:30N 30°11' W 093°19'0 0.0
2018-Apr-23 01:00N 30°11' W 093°19'0 0.0
2018-Apr-23 00:30N 30°11' W 093°19'0 0.0
2018-Apr-23 00:00N 30°11' W 093°19'0 0.0
2018-Apr-22 23:30N 30°11' W 093°19'0 0.0
2018-Apr-22 23:00N 30°11' W 093°19'0 0.0
2018-Apr-22 22:30N 30°11' W 093°19'0 0.0
2018-Apr-22 22:00N 30°11' W 093°19'0 0.0
2018-Apr-22 21:30N 30°11' W 093°19'0 0.0
2018-Apr-22 21:00N 30°11' W 093°19'0 0.0
2018-Apr-22 20:30N 30°11' W 093°19'0 0.0
2018-Apr-22 20:00N 30°11' W 093°19'0 0.0
2018-Apr-22 19:30N 30°11' W 093°19'0 0.0
2018-Apr-22 19:00N 30°11' W 093°19'0 0.0
2018-Apr-22 18:30N 30°11' W 093°19'0 0.0
2018-Apr-22 17:57N 30°11' W 093°19'0 0.0
2018-Apr-22 17:30N 30°11' W 093°19'0 0.0
2018-Apr-22 17:00N 30°11' W 093°19'0 0.0
2018-Apr-22 16:30N 30°11' W 093°19'0 0.0
2018-Apr-22 16:00N 30°11' W 093°19'0 0.0
2018-Apr-22 15:30N 30°11' W 093°19'0 0.0
2018-Apr-22 15:01N 30°11' W 093°19'0 0.3
2018-Apr-22 14:31N 30°11' W 093°19'1 1.3
2018-Apr-22 14:01N 30°10' W 093°19'3 5.6
2018-Apr-22 13:31N 30°07' W 093°20'4 7.4
2018-Apr-22 13:01N 30°04' W 093°20'3 5.7
2018-Apr-22 12:31N 30°01' W 093°20'3 5.3
2018-Apr-22 12:00N 29°58' W 093°20'4 8.1
2018-Apr-22 11:31N 29°54' W 093°21'4 8.6
2018-Apr-22 11:00N 29°50' W 093°21'13 1.9
2018-Apr-22 04:05N 29°37' W 093°21'7 8.4
2018-Apr-22 03:14N 29°35' W 093°28'2 8.7
2018-Apr-22 02:59N 29°34' W 093°31'4 8.7
2018-Apr-22 02:30N 29°33' W 093°35'4 8.8
2018-Apr-22 02:01N 29°32' W 093°40'4 8.7
2018-Apr-22 01:31N 29°31' W 093°45'4 8.6
2018-Apr-22 01:01N 29°30' W 093°50'4 8.7
2018-Apr-22 00:31N 29°29' W 093°55'4 8.4
2018-Apr-22 00:00N 29°27' W 093°59'4 8.7
2018-Apr-21 23:30N 29°24' W 094°03'4 8.9
2018-Apr-21 23:00N 29°21' W 094°07'4 8.8
2018-Apr-21 22:30N 29°18' W 094°10'23 0.8
2018-Apr-20 17:54N 29°20' W 094°36'0 0.1
2018-Apr-20 17:28N 29°20' W 094°36'0 0.0
2018-Apr-20 04:49N 29°20' W 094°36'0 0.0
2018-Apr-19 04:07N 29°20' W 094°36'0 0.1
2018-Apr-19 03:58N 29°20' W 094°36'16 1.4
2018-Apr-18 16:10N 29°09' W 094°22'3 8.5
2018-Apr-18 15:51N 29°08' W 094°19'3 8.4
2018-Apr-18 15:27N 29°06' W 094°16'5 8.5
2018-Apr-18 14:52N 29°03' W 094°12'5 8.1
2018-Apr-18 14:18N 29°00' W 094°07'3 8.0
2018-Apr-18 13:56N 28°59' W 094°05'6 8.2
2018-Apr-18 13:12N 28°55' W 093°59'2 8.7
2018-Apr-18 12:59N 28°54' W 093°57'4 8.5
2018-Apr-18 12:30N 28°52' W 093°53'4 8.4
2018-Apr-18 12:00N 28°49' W 093°49'4 8.5
2018-Apr-18 11:30N 28°47' W 093°45'4 8.6
2018-Apr-18 11:00N 28°44' W 093°42'4 8.5
2018-Apr-18 10:30N 28°42' W 093°37'4 8.7
2018-Apr-18 10:00N 28°39' W 093°34'5 8.7
2018-Apr-18 09:29N 28°37' W 093°29'4 8.8
2018-Apr-18 09:00N 28°34' W 093°25'4 8.9
2018-Apr-18 08:30N 28°32' W 093°21'5 9.0
2018-Apr-18 07:57N 28°29' W 093°17'4 9.0
2018-Apr-18 07:30N 28°26' W 093°13'4 9.0
2018-Apr-18 07:00N 28°24' W 093°09'  
2018-Apr-15 11:31N 27°43' W 082°33'210.5
2018-Apr-15 11:21N 27°44' W 082°32'3 9.4
2018-Apr-15 10:59N 27°47' W 082°31'4 9.1
2018-Apr-15 10:30N 27°50' W 082°27'5 9.1
2018-Apr-15 10:00N 27°54' W 082°26'0 0.7
2018-Apr-15 09:30N 27°54' W 082°26'2 4.2
2018-Apr-15 09:01N 27°57' W 082°27'1 1.3
2018-Apr-15 08:30N 27°57' W 082°27'0 0.0
2018-Apr-15 08:00N 27°57' W 082°27'0 0.0
2018-Apr-15 07:29N 27°57' W 082°27'0 0.0
2018-Apr-15 06:59N 27°57' W 082°27'0 0.0
2018-Apr-15 06:29N 27°57' W 082°27'0 0.0
2018-Apr-15 05:59N 27°57' W 082°27'0 0.0
2018-Apr-15 05:29N 27°57' W 082°27'0 0.0
2018-Apr-15 04:59N 27°57' W 082°27'0 0.0
2018-Apr-15 04:29N 27°57' W 082°27'0 0.0
2018-Apr-15 03:56N 27°57' W 082°27'0 0.0
2018-Apr-15 03:26N 27°57' W 082°27'0 0.0
2018-Apr-15 02:59N 27°57' W 082°27'0 0.0
2018-Apr-15 02:26N 27°57' W 082°27'0 0.0
2018-Apr-15 01:59N 27°57' W 082°27'0 0.0
2018-Apr-15 01:29N 27°57' W 082°27'0 0.0
2018-Apr-15 00:59N 27°57' W 082°27'0 0.0
2018-Apr-15 00:29N 27°57' W 082°27'0 0.0
2018-Apr-14 23:59N 27°57' W 082°27'0 0.0
2018-Apr-14 23:29N 27°57' W 082°27'0 0.0
2018-Apr-14 22:59N 27°57' W 082°27'0 0.1
2018-Apr-14 22:29N 27°57' W 082°27'0 0.0
2018-Apr-14 21:59N 27°57' W 082°27'0 0.0
2018-Apr-14 21:29N 27°57' W 082°27'0 0.0
2018-Apr-14 20:59N 27°57' W 082°27'0 0.0
2018-Apr-14 20:29N 27°57' W 082°27'0 0.0
2018-Apr-14 19:59N 27°57' W 082°27'0 0.0
2018-Apr-14 19:29N 27°57' W 082°27'0 0.0
2018-Apr-14 18:59N 27°57' W 082°27'0 0.0
2018-Apr-14 18:29N 27°57' W 082°27'0 0.0
2018-Apr-14 17:59N 27°57' W 082°27'0 0.0
2018-Apr-14 17:29N 27°57' W 082°27'0 0.0
2018-Apr-14 16:59N 27°57' W 082°27'0 0.0
2018-Apr-14 16:29N 27°57' W 082°27'0 0.0
2018-Apr-14 15:59N 27°57' W 082°27'0 0.0
2018-Apr-14 15:29N 27°57' W 082°27'0 0.0
2018-Apr-14 14:59N 27°57' W 082°27'0 0.0
2018-Apr-14 14:29N 27°57' W 082°27'0 0.0
2018-Apr-14 13:59N 27°57' W 082°27'0 0.0
2018-Apr-14 13:29N 27°57' W 082°27'0 0.0
2018-Apr-14 12:59N 27°57' W 082°27'0 0.0
2018-Apr-14 12:29N 27°57' W 082°27'0 0.0
2018-Apr-14 11:59N 27°57' W 082°27'0 0.0
2018-Apr-14 11:26N 27°57' W 082°27'0 0.0
2018-Apr-14 10:59N 27°57' W 082°27'0 0.0
2018-Apr-14 10:29N 27°57' W 082°27'0 0.0
2018-Apr-14 09:59N 27°57' W 082°27'0 0.0
2018-Apr-14 09:29N 27°57' W 082°27'  

Dump ship's entire track history